Tuesday, January 15, 2019, 6:52 PM EST
Back to Local

KPSF, Pittsfield Municipal Airport

Location: Pittsfield, MA, United States Lat: 42.433
Local Time: 6:52 PM EST (23:52 GMT) Lon: -73.283
Time Zone: US/Eastern Elev: 1194 ft

Show me the last for .
Show Decoded

2019-01-15 18:29 METAR KPSF 152329Z AUTO 24003KT 10SM FEW020 OVC031 M03/M07 A3003 RMK AO2 UPE29
                 P0000 T10331072 =
2019-01-15 17:54 METAR KPSF 152254Z AUTO 00000KT 10SM UP BKN019 OVC030 M03/M07 A3003 RMK AO2
                 UPB25 SLP188 P0000 T10281072 =
2019-01-15 16:54 METAR KPSF 152154Z AUTO 27004KT 9SM BKN016 OVC025 M03/M07 A3003 RMK AO2 SLP188
                 T10281072 =
2019-01-15 15:54 METAR KPSF 152054Z AUTO 27006KT 10SM BKN017 OVC032 M03/M07 A3003 RMK AO2 SLP187
                 T10281072 50000 =
2019-01-15 15:50 METAR KPSF 152050Z AUTO 26004KT 10SM BKN017 OVC032 M03/M07 A3003 RMK AO2 =
2019-01-15 15:18 METAR KPSF 152018Z AUTO 25004KT 10SM SCT020 OVC031 M03/M07 A3002 RMK AO2
                 T10281072 =
2019-01-15 14:54 METAR KPSF 151954Z AUTO 28004KT 10SM BKN021 OVC029 M03/M07 A3003 RMK AO2 SLP188
                 T10281072 =
2019-01-15 13:54 METAR KPSF 151854Z AUTO 30005KT 10SM OVC018 M03/M08 A3003 RMK AO2 SLP186
                 T10281078 =
2019-01-15 12:54 METAR KPSF 151754Z AUTO 34006KT 10SM FEW020 OVC029 M03/M08 A3003 RMK AO2 SLP188
                 60000 T10281083 11028 21106 58020 =
2019-01-15 11:54 METAR KPSF 151654Z AUTO VRB04KT 10SM OVC025 M04/M09 A3005 RMK AO2 SLP197
                 T10441089 =
2019-01-15 10:54 METAR KPSF 151554Z AUTO 33007KT 10SM OVC024 M06/M10 A3008 RMK AO2 SLP209
                 T10561100 =
2019-01-15 09:54 METAR KPSF 151454Z AUTO VRB03KT 10SM OVC021 M06/M11 A3009 RMK AO2 SLP211 60000
                 T10561106 53016 =
2019-01-15 09:29 METAR KPSF 151429Z AUTO 00000KT 10SM BKN020 M06/M12 A3009 RMK AO2 T10611117 =
2019-01-15 08:54 METAR KPSF 151354Z AUTO 00000KT 10SM SCT020 M07/M13 A3007 RMK AO2 SLP206
                 T10721133 =
2019-01-15 08:32 METAR KPSF 151332Z AUTO 24004KT 10SM BKN021 M08/M14 A3007 RMK AO2 T10831139 =
2019-01-15 07:54 METAR KPSF 151254Z AUTO 29006KT 10SM CLR M10/M14 A3006 RMK AO2 UPB14E26 SLP204
                 P0000 T11001139 =
2019-01-15 06:54 METAR KPSF 151154Z AUTO 26006KT 10SM CLR M11/M14 A3005 RMK AO2 SLP199 T11061139
                 11072 21106 53004 =
2019-01-15 05:54 METAR KPSF 151054Z AUTO 35004KT 10SM CLR M10/M13 A3004 RMK AO2 SLP197 T11001133
                 =
2019-01-15 04:54 METAR KPSF 150954Z AUTO 30004KT 10SM CLR M09/M13 A3004 RMK AO2 SLP193 T10941133
                 =
2019-01-15 03:54 METAR KPSF 150854Z AUTO 28007KT 10SM FEW110 M08/M14 A3003 RMK AO2 SLP190
                 T10831139 58000 =
2019-01-15 02:54 METAR KPSF 150754Z AUTO 30006KT 10SM CLR M08/M14 A3003 RMK AO2 SLP189 T10781139
                 =
2019-01-15 01:54 METAR KPSF 150654Z AUTO 28009KT 10SM CLR M07/M14 A3004 RMK AO2 SLP192 T10721139
                 =
2019-01-15 00:54 METAR KPSF 150554Z AUTO 28009KT 10SM CLR M08/M13 A3003 RMK AO2 SLP191 60000
                 T10781133 11067 21089 58010 =
2019-01-14 23:54 METAR KPSF 150454Z AUTO 24006KT 10SM CLR M08/M14 A3004 RMK AO2 SLP196 T10831139
                 410331167 =
2019-01-14 22:54 METAR KPSF 150354Z AUTO 24006KT 10SM CLR M08/M14 A3006 RMK AO2 SLP203 T10831139
                 =
2019-01-14 21:54 METAR KPSF 150254Z AUTO 25006KT 10SM CLR M07/M13 A3007 RMK AO2 SLP207 60000
                 T10721133 55003 =
2019-01-14 20:54 METAR KPSF 150154Z AUTO 26007KT 10SM CLR M07/M13 A3007 RMK AO2 UPB03E13 SLP208
                 P0000 T10721133 =
2019-01-14 19:54 METAR KPSF 150054Z AUTO 28007KT 10SM CLR M07/M13 A3007 RMK AO2 SLP212 T10671128
                 =
2019-01-14 18:54 METAR KPSF 142354Z AUTO 25007KT 10SM CLR M07/M13 A3008 RMK AO2 SLP215 T10721128
                 11033 21072 56006 =

Support USWX by starting your Amazon purchase here.